Terminal Aerodrome Forecast
Issued by NWS Omaha/Valley, NE

Home | Current Version | Previous Version | Text Only | Print | Product List | Glossary On
Versions: 1 2 3 4 5 6 7 8 9 10 11 12 13 14 15 16 17 18 19 20
000
FTUS43 KOAX 181725
TAFOMA
TAF
KOMA 181725Z 1818/1918 15017G21KT P6SM SKC
     FM190100 15016KT P6SM SCT250
     FM190600 15014KT P6SM SKC WS020/20048KT
     FM191500 18017KT P6SM SCT250=

USA.gov is the U.S. government's official web portal to all federal, state and local government web resources and services.